Portada
METAR-TAF:

METAR-TAF

Aeroports :

Ubon Ratchathani, Tailàndia

latitud: 15-15N, longitud: 104-52E, altitud: 123 m

Observació

L'informe es va fer fa 1 hora i 2 minuts, a les 08:00 UTC
Vent 7 kt del Nord/Nord-Est, variant entre Nord i Est/Nord-Est
Temperatura 29°C
Humitat 55%
Pressió 1008 hPa
Visibilitat: 9000 m
Escasses núvols a una alçada de 3500 ft

METAR: VTUU 240800Z 03007KT 350V060 9000 FEW035 29/19 Q1008 NOSIG

Hora: 16:02 (09:02 UTC)

Pronòstic

L'informe es va fer fa 4 hores i 2 minuts, a les 05:00 UTC
Pronòstic vàlid del 24 a les 06 UTC al 25 a les 06 UTC
Vent 7 kt del Nord/Nord-Est
Visibilitat 10 km o més
sense núvols per sota de 1500 mi sense presència de cumulonimbus.

TAF: VTUU 240500Z 2406/2506 03007KT CAVOK

Observacions i pronòstics meteorològics de més de 4000 aeroports (METAR i TAF).

Les estacions disponibles són els punts grocs i vermells al mapa.

Posi el ratolí al punt desitjat per veure el nom de l'estació.

Feu clic per veure les observacions i els pronòstics meteorològics.

Per canviar el mapa: feu clic els botons verds amb una creu de color negre per apropar; al botó verd amb un guió per allunyar la imatge; o en les fletxes verdes per a mapes adjacents.


METAR-TAF: